sensor_id;sensor_type;location;lat;lon;timestamp;pressure;altitude;pressure_sealevel;temperature;humidity
141;BME280;65;48.778;9.160;2022-11-06T00:01:07;98974.66;;;4.69;100.00
141;BME280;65;48.778;9.160;2022-11-06T00:03:33;98969.47;;;4.68;100.00
141;BME280;65;48.778;9.160;2022-11-06T00:05:59;98965.84;;;4.72;100.00
141;BME280;65;48.778;9.160;2022-11-06T00:08:43;98968.69;;;4.64;100.00
141;BME280;65;48.778;9.160;2022-11-06T00:11:10;98957.41;;;4.61;100.00
141;BME280;65;48.778;9.160;2022-11-06T00:13:36;98959.16;;;4.60;100.00
141;BME280;65;48.778;9.160;2022-11-06T00:16:03;98959.00;;;4.68;100.00
141;BME280;65;48.778;9.160;2022-11-06T00:19:00;98951.91;;;4.71;100.00
141;BME280;65;48.778;9.160;2022-11-06T00:21:28;98951.69;;;4.79;100.00
141;BME280;65;48.778;9.160;2022-11-06T00:23:55;98940.22;;;4.83;100.00
141;BME280;65;48.778;9.160;2022-11-06T00:26:23;98941.72;;;4.92;100.00
141;BME280;65;48.778;9.160;2022-11-06T00:28:49;98945.25;;;4.91;100.00
141;BME280;65;48.778;9.160;2022-11-06T00:31:17;98954.00;;;4.90;100.00
141;BME280;65;48.778;9.160;2022-11-06T00:33:43;98965.47;;;4.86;100.00
141;BME280;65;48.778;9.160;2022-11-06T00:36:12;98965.72;;;4.76;100.00
141;BME280;65;48.778;9.160;2022-11-06T00:38:38;98974.41;;;4.79;100.00
141;BME280;65;48.778;9.160;2022-11-06T00:41:05;98970.31;;;4.68;100.00
141;BME280;65;48.778;9.160;2022-11-06T00:43:31;98964.41;;;4.60;100.00
141;BME280;65;48.778;9.160;2022-11-06T00:46:02;98966.97;;;4.62;100.00
141;BME280;65;48.778;9.160;2022-11-06T00:48:28;98975.56;;;4.68;100.00
141;BME280;65;48.778;9.160;2022-11-06T00:50:53;98978.94;;;4.72;100.00
141;BME280;65;48.778;9.160;2022-11-06T00:53:19;98979.81;;;4.72;100.00
141;BME280;65;48.778;9.160;2022-11-06T00:55:44;98975.59;;;4.67;100.00
141;BME280;65;48.778;9.160;2022-11-06T00:58:09;98983.44;;;4.67;100.00
141;BME280;65;48.778;9.160;2022-11-06T01:00:35;98983.41;;;4.68;100.00
141;BME280;65;48.778;9.160;2022-11-06T01:03:00;98979.88;;;4.69;100.00
141;BME280;65;48.778;9.160;2022-11-06T01:05:25;98972.06;;;4.68;100.00
141;BME280;65;48.778;9.160;2022-11-06T01:07:51;98963.31;;;4.69;100.00
141;BME280;65;48.778;9.160;2022-11-06T01:10:16;98967.69;;;4.68;100.00
141;BME280;65;48.778;9.160;2022-11-06T01:12:42;98964.91;;;4.74;100.00
141;BME280;65;48.778;9.160;2022-11-06T01:15:07;98971.94;;;4.72;100.00
141;BME280;65;48.778;9.160;2022-11-06T01:17:33;98967.69;;;4.68;100.00
141;BME280;65;48.778;9.160;2022-11-06T01:19:59;98961.75;;;4.62;100.00
141;BME280;65;48.778;9.160;2022-11-06T01:22:24;98965.38;;;4.56;100.00
141;BME280;65;48.778;9.160;2022-11-06T01:24:50;98955.03;;;4.52;100.00
141;BME280;65;48.778;9.160;2022-11-06T01:27:15;98957.97;;;4.39;100.00
141;BME280;65;48.778;9.160;2022-11-06T01:29:40;98956.47;;;4.31;100.00
141;BME280;65;48.778;9.160;2022-11-06T01:32:06;98956.53;;;4.28;100.00
141;BME280;65;48.778;9.160;2022-11-06T01:34:31;98963.66;;;4.23;100.00
141;BME280;65;48.778;9.160;2022-11-06T01:36:56;98966.47;;;4.15;100.00
141;BME280;65;48.778;9.160;2022-11-06T01:39:22;98974.53;;;4.04;100.00
141;BME280;65;48.778;9.160;2022-11-06T01:41:49;98969.56;;;3.94;100.00
141;BME280;65;48.778;9.160;2022-11-06T01:46:56;98967.91;;;3.91;100.00
141;BME280;65;48.778;9.160;2022-11-06T01:49:22;98967.16;;;3.86;100.00
141;BME280;65;48.778;9.160;2022-11-06T01:52:00;98962.09;;;3.78;100.00
141;BME280;65;48.778;9.160;2022-11-06T01:54:28;98964.91;;;3.71;100.00
141;BME280;65;48.778;9.160;2022-11-06T01:56:57;98962.06;;;3.80;100.00
141;BME280;65;48.778;9.160;2022-11-06T01:59:26;98956.00;;;3.78;100.00
141;BME280;65;48.778;9.160;2022-11-06T02:01:52;98953.41;;;3.78;100.00
141;BME280;65;48.778;9.160;2022-11-06T02:04:26;98964.84;;;3.72;100.00
141;BME280;65;48.778;9.160;2022-11-06T02:07:11;98952.97;;;3.59;100.00
141;BME280;65;48.778;9.160;2022-11-06T02:09:37;98953.97;;;3.54;100.00
141;BME280;65;48.778;9.160;2022-11-06T02:20:31;98954.16;;;3.44;100.00
141;BME280;65;48.778;9.160;2022-11-06T02:28:37;98947.09;;;3.49;100.00
141;BME280;65;48.778;9.160;2022-11-06T02:31:12;98939.78;;;3.64;100.00
141;BME280;65;48.778;9.160;2022-11-06T02:33:51;98930.00;;;3.72;100.00
141;BME280;65;48.778;9.160;2022-11-06T02:36:24;98926.44;;;3.76;100.00
141;BME280;65;48.778;9.160;2022-11-06T02:38:56;98925.53;;;3.77;100.00
141;BME280;65;48.778;9.160;2022-11-06T02:41:35;98919.72;;;4.00;100.00
141;BME280;65;48.778;9.160;2022-11-06T02:44:06;98917.25;;;3.95;100.00
141;BME280;65;48.778;9.160;2022-11-06T02:46:37;98908.06;;;4.15;100.00
141;BME280;65;48.778;9.160;2022-11-06T02:49:12;98904.81;;;4.03;100.00
141;BME280;65;48.778;9.160;2022-11-06T02:51:45;98896.06;;;4.04;100.00
141;BME280;65;48.778;9.160;2022-11-06T02:54:13;98894.59;;;3.94;100.00
141;BME280;65;48.778;9.160;2022-11-06T02:56:42;98890.56;;;3.81;100.00
141;BME280;65;48.778;9.160;2022-11-06T02:59:33;98885.66;;;3.69;100.00
141;BME280;65;48.778;9.160;2022-11-06T03:02:04;98874.47;;;3.64;100.00
141;BME280;65;48.778;9.160;2022-11-06T03:04:46;98872.00;;;3.58;100.00
141;BME280;65;48.778;9.160;2022-11-06T03:09:47;98870.31;;;3.55;100.00
141;BME280;65;48.778;9.160;2022-11-06T03:12:22;98871.34;;;3.46;100.00
141;BME280;65;48.778;9.160;2022-11-06T03:15:32;98866.16;;;3.45;100.00
141;BME280;65;48.778;9.160;2022-11-06T03:23:08;98874.66;;;3.17;100.00
141;BME280;65;48.778;9.160;2022-11-06T03:25:46;98872.16;;;3.13;100.00
141;BME280;65;48.778;9.160;2022-11-06T03:30:54;98869.50;;;3.14;100.00
141;BME280;65;48.778;9.160;2022-11-06T03:38:38;98873.00;;;3.13;100.00
141;BME280;65;48.778;9.160;2022-11-06T03:41:08;98865.09;;;3.16;100.00
141;BME280;65;48.778;9.160;2022-11-06T03:43:36;98855.91;;;3.37;100.00
141;BME280;65;48.778;9.160;2022-11-06T03:46:06;98858.38;;;3.43;100.00
141;BME280;65;48.778;9.160;2022-11-06T03:48:38;98851.53;;;3.38;100.00
141;BME280;65;48.778;9.160;2022-11-06T03:51:15;98848.19;;;3.33;100.00
141;BME280;65;48.778;9.160;2022-11-06T03:53:54;98847.47;;;3.26;100.00
141;BME280;65;48.778;9.160;2022-11-06T03:58:48;98853.13;;;3.08;100.00
141;BME280;65;48.778;9.160;2022-11-06T04:01:20;98850.47;;;3.09;100.00
141;BME280;65;48.778;9.160;2022-11-06T04:04:04;98848.69;;;3.11;100.00
141;BME280;65;48.778;9.160;2022-11-06T04:06:37;98833.09;;;3.08;100.00
141;BME280;65;48.778;9.160;2022-11-06T04:09:06;98832.41;;;3.00;100.00
141;BME280;65;48.778;9.160;2022-11-06T04:11:52;98830.72;;;2.98;100.00
141;BME280;65;48.778;9.160;2022-11-06T04:14:40;98832.66;;;2.90;100.00
141;BME280;65;48.778;9.160;2022-11-06T04:17:09;98816.81;;;2.97;100.00
141;BME280;65;48.778;9.160;2022-11-06T04:19:37;98824.81;;;2.88;100.00
141;BME280;65;48.778;9.160;2022-11-06T04:28:17;98808.06;;;3.00;100.00
141;BME280;65;48.778;9.160;2022-11-06T04:30:52;98811.25;;;3.11;100.00
141;BME280;65;48.778;9.160;2022-11-06T04:33:33;98803.63;;;3.03;100.00
141;BME280;65;48.778;9.160;2022-11-06T04:41:37;98801.28;;;2.91;100.00
141;BME280;65;48.778;9.160;2022-11-06T04:44:14;98792.63;;;2.88;100.00
141;BME280;65;48.778;9.160;2022-11-06T04:46:48;98791.88;;;2.82;100.00
141;BME280;65;48.778;9.160;2022-11-06T04:49:14;98798.88;;;2.80;100.00
141;BME280;65;48.778;9.160;2022-11-06T04:51:42;98801.69;;;2.71;100.00
141;BME280;65;48.778;9.160;2022-11-06T04:54:09;98795.91;;;2.59;100.00
141;BME280;65;48.778;9.160;2022-11-06T04:56:35;98783.75;;;2.58;100.00
141;BME280;65;48.778;9.160;2022-11-06T04:59:02;98772.19;;;2.69;100.00
141;BME280;65;48.778;9.160;2022-11-06T05:01:28;98765.22;;;2.70;100.00
141;BME280;65;48.778;9.160;2022-11-06T05:03:53;98780.00;;;2.69;100.00
141;BME280;65;48.778;9.160;2022-11-06T05:06:18;98786.25;;;2.62;100.00
141;BME280;65;48.778;9.160;2022-11-06T05:08:44;98792.47;;;2.57;100.00
141;BME280;65;48.778;9.160;2022-11-06T05:11:10;98801.91;;;2.62;100.00
141;BME280;65;48.778;9.160;2022-11-06T05:13:35;98813.00;;;2.72;100.00
141;BME280;65;48.778;9.160;2022-11-06T05:16:02;98812.06;;;2.74;100.00
141;BME280;65;48.778;9.160;2022-11-06T05:18:28;98815.56;;;2.73;100.00
141;BME280;65;48.778;9.160;2022-11-06T05:20:53;98810.50;;;2.67;100.00
141;BME280;65;48.778;9.160;2022-11-06T05:23:40;98805.41;;;2.61;100.00
141;BME280;65;48.778;9.160;2022-11-06T05:26:06;98806.41;;;2.56;100.00
141;BME280;65;48.778;9.160;2022-11-06T05:28:33;98802.91;;;2.57;100.00
141;BME280;65;48.778;9.160;2022-11-06T05:30:58;98804.44;;;2.65;100.00
141;BME280;65;48.778;9.160;2022-11-06T05:33:24;98810.50;;;2.67;100.00
141;BME280;65;48.778;9.160;2022-11-06T05:35:50;98818.38;;;2.64;100.00
141;BME280;65;48.778;9.160;2022-11-06T05:38:15;98821.97;;;2.59;100.00
141;BME280;65;48.778;9.160;2022-11-06T05:40:41;98811.75;;;2.49;100.00
141;BME280;65;48.778;9.160;2022-11-06T05:43:06;98799.75;;;2.41;100.00
141;BME280;65;48.778;9.160;2022-11-06T05:45:31;98791.13;;;2.37;100.00
141;BME280;65;48.778;9.160;2022-11-06T05:47:57;98790.28;;;2.37;100.00
141;BME280;65;48.778;9.160;2022-11-06T05:50:22;98791.06;;;2.40;100.00
141;BME280;65;48.778;9.160;2022-11-06T05:52:48;98790.22;;;2.40;100.00
141;BME280;65;48.778;9.160;2022-11-06T05:55:13;98791.88;;;2.44;100.00
141;BME280;65;48.778;9.160;2022-11-06T05:57:38;98795.47;;;2.38;100.00
141;BME280;65;48.778;9.160;2022-11-06T06:00:05;98800.81;;;2.31;100.00
141;BME280;65;48.778;9.160;2022-11-06T06:02:30;98815.69;;;2.26;100.00
141;BME280;65;48.778;9.160;2022-11-06T06:04:56;98814.88;;;2.22;100.00
141;BME280;65;48.778;9.160;2022-11-06T06:07:21;98810.56;;;2.21;100.00
141;BME280;65;48.778;9.160;2022-11-06T06:09:46;98801.94;;;2.17;100.00
141;BME280;65;48.778;9.160;2022-11-06T06:12:12;98802.00;;;2.14;100.00
141;BME280;65;48.778;9.160;2022-11-06T06:14:38;98804.63;;;2.14;100.00
141;BME280;65;48.778;9.160;2022-11-06T06:17:03;98807.31;;;2.10;100.00
141;BME280;65;48.778;9.160;2022-11-06T06:19:29;98814.34;;;2.06;100.00
141;BME280;65;48.778;9.160;2022-11-06T06:21:54;98810.75;;;2.12;100.00
141;BME280;65;48.778;9.160;2022-11-06T06:24:20;98801.94;;;2.17;100.00
141;BME280;65;48.778;9.160;2022-11-06T06:26:45;98805.50;;;2.13;100.00
141;BME280;65;48.778;9.160;2022-11-06T06:29:11;98808.75;;;2.25;100.00
141;BME280;65;48.778;9.160;2022-11-06T06:31:36;98802.63;;;2.27;100.00
141;BME280;65;48.778;9.160;2022-11-06T06:34:01;98786.97;;;2.27;100.00
141;BME280;65;48.778;9.160;2022-11-06T06:36:27;98787.00;;;2.26;100.00
141;BME280;65;48.778;9.160;2022-11-06T06:38:53;98784.41;;;2.26;100.00
141;BME280;65;48.778;9.160;2022-11-06T06:41:18;98792.25;;;2.24;100.00
141;BME280;65;48.778;9.160;2022-11-06T06:43:46;98800.88;;;2.28;100.00
141;BME280;65;48.778;9.160;2022-11-06T06:46:12;98796.44;;;2.33;100.00
141;BME280;65;48.778;9.160;2022-11-06T06:48:37;98794.41;;;2.47;100.00
141;BME280;65;48.778;9.160;2022-11-06T06:51:03;98783.84;;;2.53;100.00
141;BME280;65;48.778;9.160;2022-11-06T06:53:29;98778.63;;;2.53;100.00
141;BME280;65;48.778;9.160;2022-11-06T06:55:57;98777.72;;;2.54;100.00
141;BME280;65;48.778;9.160;2022-11-06T06:58:23;98766.25;;;2.63;100.00
141;BME280;65;48.778;9.160;2022-11-06T07:00:49;98766.75;;;2.78;100.00
141;BME280;65;48.778;9.160;2022-11-06T07:03:14;98762.16;;;2.90;100.00
141;BME280;65;48.778;9.160;2022-11-06T07:05:39;98764.53;;;3.00;100.00
141;BME280;65;48.778;9.160;2022-11-06T07:08:05;98751.88;;;3.19;100.00
141;BME280;65;48.778;9.160;2022-11-06T07:10:30;98753.41;;;3.28;100.00
141;BME280;65;48.778;9.160;2022-11-06T07:13:02;98743.03;;;3.25;100.00
141;BME280;65;48.778;9.160;2022-11-06T07:15:28;98747.97;;;3.35;100.00
141;BME280;65;48.778;9.160;2022-11-06T07:17:53;98745.31;;;3.37;100.00
141;BME280;65;48.778;9.160;2022-11-06T07:20:18;98739.28;;;3.35;100.00
141;BME280;65;48.778;9.160;2022-11-06T07:22:50;98719.56;;;3.23;100.00
141;BME280;65;48.778;9.160;2022-11-06T07:25:15;98718.69;;;3.23;100.00
141;BME280;65;48.778;9.160;2022-11-06T07:27:41;98714.41;;;3.20;100.00
141;BME280;65;48.778;9.160;2022-11-06T07:30:06;98718.00;;;3.16;100.00
141;BME280;65;48.778;9.160;2022-11-06T07:32:32;98708.53;;;3.12;100.00
141;BME280;65;48.778;9.160;2022-11-06T07:34:57;98708.53;;;3.12;100.00
141;BME280;65;48.778;9.160;2022-11-06T07:37:22;98706.69;;;3.15;100.00
141;BME280;65;48.778;9.160;2022-11-06T07:39:48;98714.47;;;3.18;100.00
141;BME280;65;48.778;9.160;2022-11-06T07:42:13;98703.88;;;3.23;100.00
141;BME280;65;48.778;9.160;2022-11-06T07:44:38;98702.06;;;3.27;100.00
141;BME280;65;48.778;9.160;2022-11-06T07:47:04;98697.66;;;3.29;100.00
141;BME280;65;48.778;9.160;2022-11-06T07:49:29;98696.66;;;3.33;100.00
141;BME280;65;48.778;9.160;2022-11-06T07:51:55;98685.94;;;3.43;100.00
141;BME280;65;48.778;9.160;2022-11-06T07:54:20;98678.75;;;3.53;100.00
141;BME280;65;48.778;9.160;2022-11-06T07:56:46;98666.38;;;3.60;100.00
141;BME280;65;48.778;9.160;2022-11-06T07:59:11;98661.94;;;3.62;100.00
141;BME280;65;48.778;9.160;2022-11-06T08:01:36;98652.19;;;3.68;100.00
141;BME280;65;48.778;9.160;2022-11-06T08:04:02;98663.41;;;3.72;100.00
141;BME280;65;48.778;9.160;2022-11-06T08:06:27;98653.63;;;3.78;100.00
141;BME280;65;48.778;9.160;2022-11-06T08:08:52;98647.94;;;3.94;100.00
141;BME280;65;48.778;9.160;2022-11-06T08:11:18;98651.81;;;4.11;100.00
141;BME280;65;48.778;9.160;2022-11-06T08:13:58;98643.59;;;4.24;100.00
141;BME280;65;48.778;9.160;2022-11-06T08:16:24;98643.06;;;4.40;100.00
141;BME280;65;48.778;9.160;2022-11-06T08:18:50;98633.13;;;4.52;100.00
141;BME280;65;48.778;9.160;2022-11-06T08:21:21;98622.59;;;4.53;100.00
141;BME280;65;48.778;9.160;2022-11-06T08:23:49;98628.63;;;4.55;100.00
141;BME280;65;48.778;9.160;2022-11-06T08:26:27;98634.31;;;4.69;100.00
141;BME280;65;48.778;9.160;2022-11-06T08:28:53;98640.34;;;4.71;100.00
141;BME280;65;48.778;9.160;2022-11-06T08:31:18;98646.94;;;4.83;100.00
141;BME280;65;48.778;9.160;2022-11-06T08:33:48;98642.88;;;4.74;100.00
141;BME280;65;48.778;9.160;2022-11-06T08:36:13;98645.50;;;4.74;100.00
141;BME280;65;48.778;9.160;2022-11-06T08:38:39;98643.69;;;4.76;100.00
141;BME280;65;48.778;9.160;2022-11-06T08:41:09;98646.19;;;4.80;100.00
141;BME280;65;48.778;9.160;2022-11-06T08:43:36;98649.41;;;4.88;100.00
141;BME280;65;48.778;9.160;2022-11-06T08:46:02;98643.63;;;4.78;100.00
141;BME280;65;48.778;9.160;2022-11-06T08:48:28;98633.91;;;4.82;100.00
141;BME280;65;48.778;9.160;2022-11-06T08:50:53;98641.81;;;4.80;100.00
141;BME280;65;48.778;9.160;2022-11-06T08:53:18;98640.81;;;4.84;100.00
141;BME280;65;48.778;9.160;2022-11-06T08:55:44;98634.75;;;5.08;100.00
141;BME280;65;48.778;9.160;2022-11-06T08:58:09;98626.72;;;5.13;100.00
141;BME280;65;48.778;9.160;2022-11-06T09:00:35;98629.56;;;5.07;100.00
141;BME280;65;48.778;9.160;2022-11-06T09:03:06;98623.13;;;5.16;100.00
141;BME280;65;48.778;9.160;2022-11-06T09:05:32;98625.53;;;5.23;100.00
141;BME280;65;48.778;9.160;2022-11-06T09:07:58;98625.16;;;5.34;100.00
141;BME280;65;48.778;9.160;2022-11-06T09:10:25;98624.72;;;5.46;100.00
141;BME280;65;48.778;9.160;2022-11-06T09:12:51;98628.66;;;5.58;100.00
141;BME280;65;48.778;9.160;2022-11-06T09:15:16;98620.56;;;5.64;100.00
141;BME280;65;48.778;9.160;2022-11-06T09:17:44;98620.06;;;5.78;100.00
141;BME280;65;48.778;9.160;2022-11-06T09:20:11;98619.13;;;6.03;100.00
141;BME280;65;48.778;9.160;2022-11-06T09:22:36;98610.09;;;6.11;100.00
141;BME280;65;48.778;9.160;2022-11-06T09:25:02;98624.03;;;6.13;100.00
141;BME280;65;48.778;9.160;2022-11-06T09:27:28;98639.47;;;6.20;100.00
141;BME280;65;48.778;9.160;2022-11-06T09:29:53;98650.38;;;6.10;100.00
141;BME280;65;48.778;9.160;2022-11-06T09:32:18;98663.94;;;6.21;100.00
141;BME280;65;48.778;9.160;2022-11-06T09:34:44;98655.59;;;6.33;100.00
141;BME280;65;48.778;9.160;2022-11-06T09:37:09;98636.59;;;6.50;100.00
141;BME280;65;48.778;9.160;2022-11-06T09:39:34;98633.97;;;6.72;100.00
141;BME280;65;48.778;9.160;2022-11-06T09:47:20;98628.38;;;7.42;97.88
141;BME280;65;48.778;9.160;2022-11-06T09:49:53;98620.91;;;7.53;96.44
141;BME280;65;48.778;9.160;2022-11-06T09:55:00;98592.09;;;7.50;97.80
141;BME280;65;48.778;9.160;2022-11-06T09:57:40;98592.56;;;7.59;96.58
141;BME280;65;48.778;9.160;2022-11-06T10:00:13;98585.19;;;7.47;95.26
141;BME280;65;48.778;9.160;2022-11-06T10:03:07;98568.47;;;7.48;100.00
141;BME280;65;48.778;9.160;2022-11-06T10:05:37;98572.22;;;7.63;96.10
141;BME280;65;48.778;9.160;2022-11-06T10:08:17;98575.28;;;7.91;95.31
141;BME280;65;48.778;9.160;2022-11-06T10:11:01;98564.69;;;7.93;94.92
141;BME280;65;48.778;9.160;2022-11-06T10:19:24;98555.94;;;8.30;90.58
141;BME280;65;48.778;9.160;2022-11-06T10:22:35;98555.38;;;8.42;89.25
141;BME280;65;48.778;9.160;2022-11-06T10:25:22;98552.09;;;8.37;89.54
141;BME280;65;48.778;9.160;2022-11-06T10:30:21;98521.91;;;8.62;90.05
141;BME280;65;48.778;9.160;2022-11-06T10:33:15;98520.91;;;8.64;90.67
141;BME280;65;48.778;9.160;2022-11-06T10:35:52;98522.94;;;8.59;90.00
141;BME280;65;48.778;9.160;2022-11-06T10:38:25;98506.03;;;8.63;91.91
141;BME280;65;48.778;9.160;2022-11-06T10:40:52;98509.72;;;8.78;89.50
141;BME280;65;48.778;9.160;2022-11-06T10:43:39;98505.66;;;9.05;87.29
141;BME280;65;48.778;9.160;2022-11-06T10:49:02;98487.16;;;9.23;90.05
141;BME280;65;48.778;9.160;2022-11-06T10:54:37;98476.16;;;9.47;84.63
141;BME280;65;48.778;9.160;2022-11-06T10:59:58;98462.47;;;9.72;83.95
141;BME280;65;48.778;9.160;2022-11-06T11:02:30;98451.75;;;9.60;87.15
141;BME280;65;48.778;9.160;2022-11-06T11:04:57;98445.28;;;9.65;82.65
141;BME280;65;48.778;9.160;2022-11-06T11:07:23;98438.28;;;9.80;84.00
141;BME280;65;48.778;9.160;2022-11-06T11:09:49;98442.53;;;9.67;83.91
141;BME280;65;48.778;9.160;2022-11-06T11:15:04;98414.22;;;9.39;87.19
141;BME280;65;48.778;9.160;2022-11-06T11:17:30;98400.75;;;9.43;86.44
141;BME280;65;48.778;9.160;2022-11-06T11:19:55;98396.00;;;9.50;86.79
141;BME280;65;48.778;9.160;2022-11-06T11:22:21;98393.75;;;9.74;86.82
141;BME280;65;48.778;9.160;2022-11-06T11:25:06;98391.72;;;9.95;83.57
141;BME280;65;48.778;9.160;2022-11-06T11:27:36;98389.69;;;9.68;85.69
141;BME280;65;48.778;9.160;2022-11-06T11:30:03;98382.53;;;9.86;84.00
141;BME280;65;48.778;9.160;2022-11-06T11:32:29;98375.13;;;9.77;80.65
141;BME280;65;48.778;9.160;2022-11-06T11:34:56;98366.28;;;9.62;81.81
141;BME280;65;48.778;9.160;2022-11-06T11:37:29;98364.66;;;9.91;84.47
141;BME280;65;48.778;9.160;2022-11-06T11:40:17;98367.34;;;10.05;82.44
141;BME280;65;48.778;9.160;2022-11-06T11:42:41;98356.16;;;10.46;79.05
141;BME280;65;48.778;9.160;2022-11-06T11:47:36;98342.84;;;10.48;79.89
141;BME280;65;48.778;9.160;2022-11-06T11:52:47;98335.44;;;10.24;80.32
141;BME280;65;48.778;9.160;2022-11-06T11:55:19;98323.66;;;10.30;79.30
141;BME280;65;48.778;9.160;2022-11-06T11:57:47;98320.75;;;10.04;79.94
141;BME280;65;48.778;9.160;2022-11-06T12:00:18;98318.94;;;10.35;81.17
141;BME280;65;48.778;9.160;2022-11-06T12:02:51;98312.31;;;10.28;80.16
141;BME280;65;48.778;9.160;2022-11-06T12:05:22;98307.09;;;10.56;78.57
141;BME280;65;48.778;9.160;2022-11-06T12:07:54;98303.13;;;10.49;79.93
141;BME280;65;48.778;9.160;2022-11-06T12:10:52;98300.88;;;10.43;78.57
141;BME280;65;48.778;9.160;2022-11-06T12:13:25;98301.16;;;10.53;78.66
141;BME280;65;48.778;9.160;2022-11-06T12:18:33;98294.34;;;10.77;76.93
141;BME280;65;48.778;9.160;2022-11-06T12:21:03;98284.91;;;10.73;79.92
141;BME280;65;48.778;9.160;2022-11-06T12:26:31;98278.47;;;10.77;78.45
141;BME280;65;48.778;9.160;2022-11-06T12:37:51;98258.41;;;10.46;80.96
141;BME280;65;48.778;9.160;2022-11-06T12:40:31;98263.56;;;10.62;81.55
141;BME280;65;48.778;9.160;2022-11-06T12:43:16;98258.31;;;10.48;80.24
141;BME280;65;48.778;9.160;2022-11-06T12:48:27;98259.81;;;10.52;82.25
141;BME280;65;48.778;9.160;2022-11-06T12:51:26;98254.72;;;10.49;80.25
141;BME280;65;48.778;9.160;2022-11-06T12:56:51;98249.41;;;10.77;81.08
141;BME280;65;48.778;9.160;2022-11-06T13:16:06;98224.03;;;11.82;73.01
141;BME280;65;48.778;9.160;2022-11-06T13:18:39;98203.28;;;11.89;71.63
141;BME280;65;48.778;9.160;2022-11-06T13:21:21;98213.38;;;11.69;73.35
141;BME280;65;48.778;9.160;2022-11-06T13:23:50;98210.63;;;11.58;73.45
141;BME280;65;48.778;9.160;2022-11-06T13:26:27;98214.00;;;11.60;73.98
141;BME280;65;48.778;9.160;2022-11-06T13:28:58;98199.44;;;11.40;75.64
141;BME280;65;48.778;9.160;2022-11-06T13:31:34;98208.75;;;11.06;77.25
141;BME280;65;48.778;9.160;2022-11-06T13:34:03;98210.19;;;11.25;78.75
141;BME280;65;48.778;9.160;2022-11-06T13:36:30;98206.25;;;11.18;77.25
141;BME280;65;48.778;9.160;2022-11-06T13:39:05;98205.28;;;10.92;80.10
141;BME280;65;48.778;9.160;2022-11-06T13:41:31;98197.88;;;10.97;79.03
141;BME280;65;48.778;9.160;2022-11-06T13:44:03;98199.66;;;11.11;79.18
141;BME280;65;48.778;9.160;2022-11-06T13:49:26;98197.66;;;10.73;81.72
141;BME280;65;48.778;9.160;2022-11-06T13:51:56;98193.25;;;10.59;81.60
141;BME280;65;48.778;9.160;2022-11-06T13:54:25;98192.88;;;10.65;81.10
141;BME280;65;48.778;9.160;2022-11-06T14:00:16;98193.09;;;10.89;81.97
141;BME280;65;48.778;9.160;2022-11-06T14:03:08;98191.34;;;10.75;83.71
141;BME280;65;48.778;9.160;2022-11-06T14:05:46;98194.66;;;10.65;83.41
141;BME280;65;48.778;9.160;2022-11-06T14:08:17;98183.34;;;10.63;82.17
141;BME280;65;48.778;9.160;2022-11-06T14:11:12;98193.72;;;10.66;84.43
141;BME280;65;48.778;9.160;2022-11-06T14:14:05;98198.56;;;10.59;84.66
141;BME280;65;48.778;9.160;2022-11-06T14:19:01;98197.53;;;10.48;85.92
141;BME280;65;48.778;9.160;2022-11-06T14:21:44;98205.00;;;10.41;86.52
141;BME280;65;48.778;9.160;2022-11-06T14:26:48;98208.09;;;10.33;89.05
141;BME280;65;48.778;9.160;2022-11-06T14:32:31;98199.28;;;10.19;89.01
141;BME280;65;48.778;9.160;2022-11-06T14:40:36;98199.56;;;10.00;91.44
141;BME280;65;48.778;9.160;2022-11-06T14:43:35;98191.91;;;9.95;91.43
141;BME280;65;48.778;9.160;2022-11-06T14:46:06;98200.69;;;9.96;89.91
141;BME280;65;48.778;9.160;2022-11-06T14:48:46;98182.69;;;9.88;90.68
141;BME280;65;48.778;9.160;2022-11-06T14:51:14;98174.09;;;9.85;90.09
141;BME280;65;48.778;9.160;2022-11-06T14:53:56;98177.69;;;9.83;89.33
141;BME280;65;48.778;9.160;2022-11-06T14:56:29;98168.13;;;9.81;90.52
141;BME280;65;48.778;9.160;2022-11-06T14:58:57;98165.84;;;9.75;92.30
141;BME280;65;48.778;9.160;2022-11-06T15:01:27;98157.19;;;9.73;90.04
141;BME280;65;48.778;9.160;2022-11-06T15:03:55;98152.00;;;9.71;88.42
141;BME280;65;48.778;9.160;2022-11-06T15:08:57;98160.09;;;9.68;88.39
141;BME280;65;48.778;9.160;2022-11-06T15:19:11;98163.38;;;9.58;88.85
141;BME280;65;48.778;9.160;2022-11-06T15:21:44;98156.69;;;9.52;89.69
141;BME280;65;48.778;9.160;2022-11-06T15:24:25;98156.09;;;9.47;89.26
141;BME280;65;48.778;9.160;2022-11-06T15:26:56;98152.50;;;9.34;90.81
141;BME280;65;48.778;9.160;2022-11-06T15:29:28;98156.59;;;9.24;91.80
141;BME280;65;48.778;9.160;2022-11-06T15:32:05;98160.88;;;9.10;92.17
141;BME280;65;48.778;9.160;2022-11-06T15:34:39;98149.84;;;9.04;92.05
141;BME280;65;48.778;9.160;2022-11-06T15:37:12;98151.75;;;8.86;95.41
141;BME280;65;48.778;9.160;2022-11-06T15:39:51;98164.69;;;8.75;95.06
141;BME280;65;48.778;9.160;2022-11-06T15:42:25;98182.28;;;8.74;96.42
141;BME280;65;48.778;9.160;2022-11-06T15:45:25;98169.59;;;8.65;96.88
141;BME280;65;48.778;9.160;2022-11-06T15:48:00;98167.56;;;8.70;96.08
141;BME280;65;48.778;9.160;2022-11-06T15:50:27;98171.28;;;8.66;95.80
141;BME280;65;48.778;9.160;2022-11-06T15:52:53;98166.28;;;8.46;98.70
141;BME280;65;48.778;9.160;2022-11-06T15:55:28;98162.59;;;8.33;100.00
141;BME280;65;48.778;9.160;2022-11-06T15:57:54;98166.63;;;8.40;100.00
141;BME280;65;48.778;9.160;2022-11-06T16:00:29;98163.78;;;8.27;100.00
141;BME280;65;48.778;9.160;2022-11-06T16:05:23;98164.97;;;8.04;100.00
141;BME280;65;48.778;9.160;2022-11-06T16:07:50;98166.16;;;7.99;100.00
141;BME280;65;48.778;9.160;2022-11-06T16:10:17;98163.84;;;7.92;100.00
141;BME280;65;48.778;9.160;2022-11-06T16:12:43;98155.28;;;7.89;100.00
141;BME280;65;48.778;9.160;2022-11-06T16:18:16;98149.44;;;8.00;100.00
141;BME280;65;48.778;9.160;2022-11-06T16:20:47;98146.81;;;8.00;100.00
141;BME280;65;48.778;9.160;2022-11-06T16:23:17;98147.53;;;8.19;100.00
141;BME280;65;48.778;9.160;2022-11-06T16:25:44;98152.13;;;8.31;100.00
141;BME280;65;48.778;9.160;2022-11-06T16:28:15;98150.34;;;8.32;100.00
141;BME280;65;48.778;9.160;2022-11-06T16:30:41;98151.28;;;8.31;100.00
141;BME280;65;48.778;9.160;2022-11-06T16:33:17;98156.97;;;8.23;100.00
141;BME280;65;48.778;9.160;2022-11-06T16:35:44;98164.09;;;8.21;100.00
141;BME280;65;48.778;9.160;2022-11-06T16:40:52;98165.81;;;8.22;100.00
141;BME280;65;48.778;9.160;2022-11-06T16:43:19;98165.97;;;8.19;100.00
141;BME280;65;48.778;9.160;2022-11-06T16:45:54;98163.50;;;8.16;100.00
141;BME280;65;48.778;9.160;2022-11-06T16:50:56;98146.22;;;8.43;99.20
141;BME280;65;48.778;9.160;2022-11-06T16:53:26;98149.78;;;8.42;99.92